sensor_id;sensor_type;location;lat;lon;timestamp;P1;durP1;ratioP1;P2;durP2;ratioP2
60610;SDS011;46439;51.164;13.572;2022-11-18T00:01:16;35.40;;;18.40;;
60610;SDS011;46439;51.164;13.572;2022-11-18T00:03:45;34.60;;;18.70;;
60610;SDS011;46439;51.164;13.572;2022-11-18T00:06:15;36.00;;;18.00;;
60610;SDS011;46439;51.164;13.572;2022-11-18T00:08:45;37.20;;;17.80;;
60610;SDS011;46439;51.164;13.572;2022-11-18T00:11:14;39.70;;;17.90;;
60610;SDS011;46439;51.164;13.572;2022-11-18T00:14:03;32.40;;;18.00;;
60610;SDS011;46439;51.164;13.572;2022-11-18T00:16:45;33.00;;;17.40;;
60610;SDS011;46439;51.164;13.572;2022-11-18T00:19:17;37.20;;;18.30;;
60610;SDS011;46439;51.164;13.572;2022-11-18T00:21:58;34.00;;;17.00;;
60610;SDS011;46439;51.164;13.572;2022-11-18T00:24:27;31.20;;;17.90;;
60610;SDS011;46439;51.164;13.572;2022-11-18T00:26:55;31.60;;;18.00;;
60610;SDS011;46439;51.164;13.572;2022-11-18T00:29:38;35.50;;;17.80;;
60610;SDS011;46439;51.164;13.572;2022-11-18T00:32:06;36.00;;;18.70;;
60610;SDS011;46439;51.164;13.572;2022-11-18T00:34:34;33.80;;;17.60;;
60610;SDS011;46439;51.164;13.572;2022-11-18T00:37:03;35.60;;;17.80;;
60610;SDS011;46439;51.164;13.572;2022-11-18T00:39:31;35.50;;;18.00;;
60610;SDS011;46439;51.164;13.572;2022-11-18T00:42:00;34.40;;;18.50;;
60610;SDS011;46439;51.164;13.572;2022-11-18T00:44:47;34.60;;;17.60;;
60610;SDS011;46439;51.164;13.572;2022-11-18T00:47:16;38.60;;;17.70;;
60610;SDS011;46439;51.164;13.572;2022-11-18T00:49:44;34.50;;;18.30;;
60610;SDS011;46439;51.164;13.572;2022-11-18T00:52:12;36.30;;;18.00;;
60610;SDS011;46439;51.164;13.572;2022-11-18T00:54:41;35.30;;;17.80;;
60610;SDS011;46439;51.164;13.572;2022-11-18T00:57:09;33.10;;;17.40;;
60610;SDS011;46439;51.164;13.572;2022-11-18T00:59:38;35.60;;;19.30;;
60610;SDS011;46439;51.164;13.572;2022-11-18T01:02:06;37.60;;;19.20;;
60610;SDS011;46439;51.164;13.572;2022-11-18T01:04:35;37.00;;;17.80;;
60610;SDS011;46439;51.164;13.572;2022-11-18T01:07:03;37.20;;;18.00;;
60610;SDS011;46439;51.164;13.572;2022-11-18T01:09:32;33.30;;;17.70;;
60610;SDS011;46439;51.164;13.572;2022-11-18T01:12:00;35.90;;;19.30;;
60610;SDS011;46439;51.164;13.572;2022-11-18T01:14:58;38.00;;;19.40;;
60610;SDS011;46439;51.164;13.572;2022-11-18T01:17:29;35.90;;;18.80;;
60610;SDS011;46439;51.164;13.572;2022-11-18T01:19:58;38.50;;;18.50;;
60610;SDS011;46439;51.164;13.572;2022-11-18T01:22:27;36.80;;;18.60;;
60610;SDS011;46439;51.164;13.572;2022-11-18T01:24:55;38.90;;;18.40;;
60610;SDS011;46439;51.164;13.572;2022-11-18T01:27:24;38.60;;;18.70;;
60610;SDS011;46439;51.164;13.572;2022-11-18T01:29:52;38.20;;;19.50;;
60610;SDS011;46439;51.164;13.572;2022-11-18T01:32:21;35.10;;;17.70;;
60610;SDS011;46439;51.164;13.572;2022-11-18T01:34:49;38.00;;;19.00;;
60610;SDS011;46439;51.164;13.572;2022-11-18T01:37:17;38.20;;;18.40;;
60610;SDS011;46439;51.164;13.572;2022-11-18T01:39:46;37.50;;;18.90;;
60610;SDS011;46439;51.164;13.572;2022-11-18T01:42:15;38.80;;;19.00;;
60610;SDS011;46439;51.164;13.572;2022-11-18T01:44:57;36.20;;;19.10;;
60610;SDS011;46439;51.164;13.572;2022-11-18T01:47:31;39.30;;;19.40;;
60610;SDS011;46439;51.164;13.572;2022-11-18T01:50:03;37.10;;;19.10;;
60610;SDS011;46439;51.164;13.572;2022-11-18T01:52:33;38.60;;;19.70;;
60610;SDS011;46439;51.164;13.572;2022-11-18T01:55:05;36.90;;;18.80;;
60610;SDS011;46439;51.164;13.572;2022-11-18T01:57:38;42.10;;;19.60;;
60610;SDS011;46439;51.164;13.572;2022-11-18T02:00:10;36.00;;;17.70;;
60610;SDS011;46439;51.164;13.572;2022-11-18T02:02:40;39.10;;;18.20;;
60610;SDS011;46439;51.164;13.572;2022-11-18T02:05:09;39.70;;;19.00;;
60610;SDS011;46439;51.164;13.572;2022-11-18T02:07:39;36.00;;;17.60;;
60610;SDS011;46439;51.164;13.572;2022-11-18T02:10:15;38.50;;;19.20;;
60610;SDS011;46439;51.164;13.572;2022-11-18T02:12:46;33.70;;;17.60;;
60610;SDS011;46439;51.164;13.572;2022-11-18T02:15:15;30.90;;;17.00;;
60610;SDS011;46439;51.164;13.572;2022-11-18T02:17:52;34.50;;;17.70;;
60610;SDS011;46439;51.164;13.572;2022-11-18T02:20:27;36.70;;;18.80;;
60610;SDS011;46439;51.164;13.572;2022-11-18T02:29:08;34.10;;;18.30;;
60610;SDS011;46439;51.164;13.572;2022-11-18T02:31:44;33.90;;;17.90;;
60610;SDS011;46439;51.164;13.572;2022-11-18T02:34:20;35.50;;;17.50;;
60610;SDS011;46439;51.164;13.572;2022-11-18T02:37:00;38.20;;;18.00;;
60610;SDS011;46439;51.164;13.572;2022-11-18T02:39:34;32.90;;;18.10;;
60610;SDS011;46439;51.164;13.572;2022-11-18T02:42:10;37.50;;;18.60;;
60610;SDS011;46439;51.164;13.572;2022-11-18T02:44:41;33.60;;;16.70;;
60610;SDS011;46439;51.164;13.572;2022-11-18T02:47:13;35.10;;;18.00;;
60610;SDS011;46439;51.164;13.572;2022-11-18T02:49:43;37.00;;;18.30;;
60610;SDS011;46439;51.164;13.572;2022-11-18T02:52:17;38.70;;;18.90;;
60610;SDS011;46439;51.164;13.572;2022-11-18T02:54:48;34.20;;;17.70;;
60610;SDS011;46439;51.164;13.572;2022-11-18T02:57:18;37.10;;;17.90;;
60610;SDS011;46439;51.164;13.572;2022-11-18T02:59:48;38.60;;;17.80;;
60610;SDS011;46439;51.164;13.572;2022-11-18T03:02:17;35.20;;;18.20;;
60610;SDS011;46439;51.164;13.572;2022-11-18T03:04:47;33.60;;;17.50;;
60610;SDS011;46439;51.164;13.572;2022-11-18T03:07:21;30.10;;;16.00;;
60610;SDS011;46439;51.164;13.572;2022-11-18T03:09:53;37.40;;;18.80;;
60610;SDS011;46439;51.164;13.572;2022-11-18T03:12:30;40.30;;;18.80;;
60610;SDS011;46439;51.164;13.572;2022-11-18T03:15:09;38.70;;;18.40;;
60610;SDS011;46439;51.164;13.572;2022-11-18T03:17:46;37.30;;;17.60;;
60610;SDS011;46439;51.164;13.572;2022-11-18T03:20:22;35.80;;;17.90;;
60610;SDS011;46439;51.164;13.572;2022-11-18T03:22:56;32.60;;;17.50;;
60610;SDS011;46439;51.164;13.572;2022-11-18T03:25:33;35.20;;;17.90;;
60610;SDS011;46439;51.164;13.572;2022-11-18T03:28:09;35.60;;;18.00;;
60610;SDS011;46439;51.164;13.572;2022-11-18T03:30:44;32.60;;;15.90;;
60610;SDS011;46439;51.164;13.572;2022-11-18T03:33:20;34.60;;;17.50;;
60610;SDS011;46439;51.164;13.572;2022-11-18T03:35:50;37.50;;;18.40;;
60610;SDS011;46439;51.164;13.572;2022-11-18T03:38:22;34.70;;;18.60;;
60610;SDS011;46439;51.164;13.572;2022-11-18T03:40:56;31.60;;;17.60;;
60610;SDS011;46439;51.164;13.572;2022-11-18T03:43:28;33.20;;;16.80;;
60610;SDS011;46439;51.164;13.572;2022-11-18T03:46:03;37.20;;;18.20;;
60610;SDS011;46439;51.164;13.572;2022-11-18T03:48:40;40.60;;;19.30;;
60610;SDS011;46439;51.164;13.572;2022-11-18T03:51:16;34.80;;;18.10;;
60610;SDS011;46439;51.164;13.572;2022-11-18T03:53:49;37.70;;;17.60;;
60610;SDS011;46439;51.164;13.572;2022-11-18T03:56:23;40.90;;;19.20;;
60610;SDS011;46439;51.164;13.572;2022-11-18T03:58:58;39.40;;;18.50;;
60610;SDS011;46439;51.164;13.572;2022-11-18T04:01:32;34.60;;;17.50;;
60610;SDS011;46439;51.164;13.572;2022-11-18T04:04:06;35.10;;;19.40;;
60610;SDS011;46439;51.164;13.572;2022-11-18T04:06:37;39.30;;;19.40;;
60610;SDS011;46439;51.164;13.572;2022-11-18T04:09:11;44.00;;;19.20;;
60610;SDS011;46439;51.164;13.572;2022-11-18T04:11:44;36.10;;;19.00;;
60610;SDS011;46439;51.164;13.572;2022-11-18T04:14:31;40.50;;;19.30;;
60610;SDS011;46439;51.164;13.572;2022-11-18T04:17:05;49.10;;;21.00;;
60610;SDS011;46439;51.164;13.572;2022-11-18T04:19:36;38.20;;;20.10;;
60610;SDS011;46439;51.164;13.572;2022-11-18T04:22:05;43.20;;;20.80;;
60610;SDS011;46439;51.164;13.572;2022-11-18T04:24:34;44.70;;;21.10;;
60610;SDS011;46439;51.164;13.572;2022-11-18T04:27:03;35.40;;;17.90;;
60610;SDS011;46439;51.164;13.572;2022-11-18T04:29:32;42.00;;;20.40;;
60610;SDS011;46439;51.164;13.572;2022-11-18T04:32:01;42.60;;;20.20;;
60610;SDS011;46439;51.164;13.572;2022-11-18T04:34:30;37.60;;;18.90;;
60610;SDS011;46439;51.164;13.572;2022-11-18T04:36:59;41.10;;;21.50;;
60610;SDS011;46439;51.164;13.572;2022-11-18T04:39:27;43.70;;;21.90;;
60610;SDS011;46439;51.164;13.572;2022-11-18T04:41:55;41.10;;;20.00;;
60610;SDS011;46439;51.164;13.572;2022-11-18T04:44:25;40.00;;;20.30;;
60610;SDS011;46439;51.164;13.572;2022-11-18T04:46:55;40.00;;;20.10;;
60610;SDS011;46439;51.164;13.572;2022-11-18T04:49:24;40.50;;;20.50;;
60610;SDS011;46439;51.164;13.572;2022-11-18T04:51:54;45.50;;;20.90;;
60610;SDS011;46439;51.164;13.572;2022-11-18T04:54:23;47.00;;;22.40;;
60610;SDS011;46439;51.164;13.572;2022-11-18T04:56:52;37.50;;;18.50;;
60610;SDS011;46439;51.164;13.572;2022-11-18T04:59:21;37.80;;;18.80;;
60610;SDS011;46439;51.164;13.572;2022-11-18T05:01:51;46.00;;;21.90;;
60610;SDS011;46439;51.164;13.572;2022-11-18T05:04:21;49.60;;;22.70;;
60610;SDS011;46439;51.164;13.572;2022-11-18T05:06:51;44.10;;;21.60;;
60610;SDS011;46439;51.164;13.572;2022-11-18T05:09:19;44.50;;;22.50;;
60610;SDS011;46439;51.164;13.572;2022-11-18T05:11:48;39.50;;;18.20;;
60610;SDS011;46439;51.164;13.572;2022-11-18T05:14:35;45.80;;;22.90;;
60610;SDS011;46439;51.164;13.572;2022-11-18T05:17:05;35.60;;;17.90;;
60610;SDS011;46439;51.164;13.572;2022-11-18T05:19:35;53.00;;;23.50;;
60610;SDS011;46439;51.164;13.572;2022-11-18T05:22:05;49.30;;;23.40;;
60610;SDS011;46439;51.164;13.572;2022-11-18T05:24:34;48.70;;;21.90;;
60610;SDS011;46439;51.164;13.572;2022-11-18T05:27:02;47.70;;;22.90;;
60610;SDS011;46439;51.164;13.572;2022-11-18T05:29:31;46.00;;;21.70;;
60610;SDS011;46439;51.164;13.572;2022-11-18T05:31:59;51.60;;;23.20;;
60610;SDS011;46439;51.164;13.572;2022-11-18T05:34:28;51.00;;;23.80;;
60610;SDS011;46439;51.164;13.572;2022-11-18T05:36:56;51.40;;;23.50;;
60610;SDS011;46439;51.164;13.572;2022-11-18T05:39:25;46.20;;;19.70;;
60610;SDS011;46439;51.164;13.572;2022-11-18T05:41:53;53.90;;;24.00;;
60610;SDS011;46439;51.164;13.572;2022-11-18T05:44:41;48.10;;;22.20;;
60610;SDS011;46439;51.164;13.572;2022-11-18T05:47:09;48.30;;;21.50;;
60610;SDS011;46439;51.164;13.572;2022-11-18T05:49:38;52.10;;;22.40;;
60610;SDS011;46439;51.164;13.572;2022-11-18T05:52:06;49.90;;;23.00;;
60610;SDS011;46439;51.164;13.572;2022-11-18T05:54:35;49.40;;;20.90;;
60610;SDS011;46439;51.164;13.572;2022-11-18T05:57:08;41.90;;;18.10;;
60610;SDS011;46439;51.164;13.572;2022-11-18T05:59:36;43.40;;;19.90;;
60610;SDS011;46439;51.164;13.572;2022-11-18T06:02:05;43.40;;;19.30;;
60610;SDS011;46439;51.164;13.572;2022-11-18T06:04:40;41.00;;;17.20;;
60610;SDS011;46439;51.164;13.572;2022-11-18T06:07:13;39.20;;;18.50;;
60610;SDS011;46439;51.164;13.572;2022-11-18T06:09:46;44.20;;;19.70;;
60610;SDS011;46439;51.164;13.572;2022-11-18T06:12:18;42.60;;;19.30;;
60610;SDS011;46439;51.164;13.572;2022-11-18T06:14:52;42.30;;;16.30;;
60610;SDS011;46439;51.164;13.572;2022-11-18T06:17:24;30.10;;;14.80;;
60610;SDS011;46439;51.164;13.572;2022-11-18T06:19:55;37.50;;;16.80;;
60610;SDS011;46439;51.164;13.572;2022-11-18T06:22:25;39.70;;;17.10;;
60610;SDS011;46439;51.164;13.572;2022-11-18T06:24:53;36.10;;;16.20;;
60610;SDS011;46439;51.164;13.572;2022-11-18T06:27:22;42.80;;;18.00;;
60610;SDS011;46439;51.164;13.572;2022-11-18T06:29:50;38.70;;;18.10;;
60610;SDS011;46439;51.164;13.572;2022-11-18T06:32:19;40.00;;;17.90;;
60610;SDS011;46439;51.164;13.572;2022-11-18T06:34:47;44.60;;;19.10;;
60610;SDS011;46439;51.164;13.572;2022-11-18T06:37:16;40.20;;;16.40;;
60610;SDS011;46439;51.164;13.572;2022-11-18T06:39:48;40.40;;;19.30;;
60610;SDS011;46439;51.164;13.572;2022-11-18T06:42:17;30.80;;;13.90;;
60610;SDS011;46439;51.164;13.572;2022-11-18T06:45:04;35.40;;;16.60;;
60610;SDS011;46439;51.164;13.572;2022-11-18T06:47:34;34.50;;;16.20;;
60610;SDS011;46439;51.164;13.572;2022-11-18T06:50:02;38.70;;;18.50;;
60610;SDS011;46439;51.164;13.572;2022-11-18T06:52:32;39.00;;;18.50;;
60610;SDS011;46439;51.164;13.572;2022-11-18T06:55:00;38.90;;;18.00;;
60610;SDS011;46439;51.164;13.572;2022-11-18T06:57:32;34.90;;;15.30;;
60610;SDS011;46439;51.164;13.572;2022-11-18T07:00:01;38.60;;;17.50;;
60610;SDS011;46439;51.164;13.572;2022-11-18T07:02:31;40.20;;;17.00;;
60610;SDS011;46439;51.164;13.572;2022-11-18T07:05:03;44.50;;;19.70;;
60610;SDS011;46439;51.164;13.572;2022-11-18T07:07:34;40.90;;;18.20;;
60610;SDS011;46439;51.164;13.572;2022-11-18T07:10:03;34.10;;;15.20;;
60610;SDS011;46439;51.164;13.572;2022-11-18T07:12:34;43.10;;;19.00;;
60610;SDS011;46439;51.164;13.572;2022-11-18T07:15:02;38.90;;;16.70;;
60610;SDS011;46439;51.164;13.572;2022-11-18T07:17:32;38.80;;;18.40;;
60610;SDS011;46439;51.164;13.572;2022-11-18T07:20:00;50.60;;;22.70;;
60610;SDS011;46439;51.164;13.572;2022-11-18T07:22:29;43.60;;;18.30;;
60610;SDS011;46439;51.164;13.572;2022-11-18T07:24:57;46.50;;;20.60;;
60610;SDS011;46439;51.164;13.572;2022-11-18T07:27:26;42.00;;;19.50;;
60610;SDS011;46439;51.164;13.572;2022-11-18T07:29:54;45.00;;;19.70;;
60610;SDS011;46439;51.164;13.572;2022-11-18T07:32:23;39.40;;;16.80;;
60610;SDS011;46439;51.164;13.572;2022-11-18T07:34:51;41.20;;;17.80;;
60610;SDS011;46439;51.164;13.572;2022-11-18T07:37:19;43.40;;;18.60;;
60610;SDS011;46439;51.164;13.572;2022-11-18T07:39:48;33.80;;;13.50;;
60610;SDS011;46439;51.164;13.572;2022-11-18T07:42:16;33.70;;;14.50;;
60610;SDS011;46439;51.164;13.572;2022-11-18T07:44:45;39.90;;;18.10;;
60610;SDS011;46439;51.164;13.572;2022-11-18T07:47:13;34.40;;;16.40;;
60610;SDS011;46439;51.164;13.572;2022-11-18T07:49:42;34.40;;;15.00;;
60610;SDS011;46439;51.164;13.572;2022-11-18T07:52:10;35.20;;;16.10;;
60610;SDS011;46439;51.164;13.572;2022-11-18T07:54:38;29.70;;;13.00;;
60610;SDS011;46439;51.164;13.572;2022-11-18T07:57:07;35.90;;;15.60;;
60610;SDS011;46439;51.164;13.572;2022-11-18T07:59:35;39.30;;;17.60;;
60610;SDS011;46439;51.164;13.572;2022-11-18T08:02:04;41.00;;;17.80;;
60610;SDS011;46439;51.164;13.572;2022-11-18T08:04:32;39.70;;;17.90;;
60610;SDS011;46439;51.164;13.572;2022-11-18T08:07:02;36.60;;;17.40;;
60610;SDS011;46439;51.164;13.572;2022-11-18T08:09:30;35.80;;;15.80;;
60610;SDS011;46439;51.164;13.572;2022-11-18T08:11:59;44.60;;;19.60;;
60610;SDS011;46439;51.164;13.572;2022-11-18T08:14:27;60.40;;;24.70;;
60610;SDS011;46439;51.164;13.572;2022-11-18T08:16:55;52.50;;;23.70;;
60610;SDS011;46439;51.164;13.572;2022-11-18T08:19:24;35.90;;;18.00;;
60610;SDS011;46439;51.164;13.572;2022-11-18T08:21:52;34.30;;;13.70;;
60610;SDS011;46439;51.164;13.572;2022-11-18T08:24:21;36.70;;;15.80;;
60610;SDS011;46439;51.164;13.572;2022-11-18T08:26:49;38.80;;;17.80;;
60610;SDS011;46439;51.164;13.572;2022-11-18T08:29:18;42.60;;;20.80;;
60610;SDS011;46439;51.164;13.572;2022-11-18T08:31:46;41.70;;;17.70;;
60610;SDS011;46439;51.164;13.572;2022-11-18T08:34:14;42.70;;;18.40;;
60610;SDS011;46439;51.164;13.572;2022-11-18T08:36:43;36.60;;;17.10;;
60610;SDS011;46439;51.164;13.572;2022-11-18T08:39:11;39.50;;;18.20;;
60610;SDS011;46439;51.164;13.572;2022-11-18T08:41:41;34.60;;;16.20;;
60610;SDS011;46439;51.164;13.572;2022-11-18T08:44:11;33.80;;;14.80;;
60610;SDS011;46439;51.164;13.572;2022-11-18T08:46:42;43.90;;;19.40;;
60610;SDS011;46439;51.164;13.572;2022-11-18T08:49:11;37.40;;;17.30;;
60610;SDS011;46439;51.164;13.572;2022-11-18T08:51:40;45.20;;;21.10;;
60610;SDS011;46439;51.164;13.572;2022-11-18T08:54:08;44.00;;;18.90;;
60610;SDS011;46439;51.164;13.572;2022-11-18T08:56:37;42.40;;;18.70;;
60610;SDS011;46439;51.164;13.572;2022-11-18T08:59:05;41.80;;;19.30;;
60610;SDS011;46439;51.164;13.572;2022-11-18T09:01:36;37.40;;;16.90;;
60610;SDS011;46439;51.164;13.572;2022-11-18T09:04:07;43.50;;;18.80;;
60610;SDS011;46439;51.164;13.572;2022-11-18T09:06:36;48.80;;;21.50;;
60610;SDS011;46439;51.164;13.572;2022-11-18T09:09:06;51.50;;;21.70;;
60610;SDS011;46439;51.164;13.572;2022-11-18T09:11:36;52.80;;;24.50;;
60610;SDS011;46439;51.164;13.572;2022-11-18T09:14:05;54.70;;;25.10;;
60610;SDS011;46439;51.164;13.572;2022-11-18T09:16:36;50.30;;;21.30;;
60610;SDS011;46439;51.164;13.572;2022-11-18T09:19:05;42.90;;;18.60;;
60610;SDS011;46439;51.164;13.572;2022-11-18T09:21:34;55.60;;;25.40;;
60610;SDS011;46439;51.164;13.572;2022-11-18T09:24:03;41.60;;;18.20;;
60610;SDS011;46439;51.164;13.572;2022-11-18T09:26:33;80.90;;;32.50;;
60610;SDS011;46439;51.164;13.572;2022-11-18T09:29:02;65.30;;;29.20;;
60610;SDS011;46439;51.164;13.572;2022-11-18T09:31:30;57.60;;;24.10;;
60610;SDS011;46439;51.164;13.572;2022-11-18T09:33:59;52.70;;;23.80;;
60610;SDS011;46439;51.164;13.572;2022-11-18T09:36:28;46.90;;;19.70;;
60610;SDS011;46439;51.164;13.572;2022-11-18T09:38:57;71.30;;;28.50;;
60610;SDS011;46439;51.164;13.572;2022-11-18T09:41:31;69.30;;;29.30;;
60610;SDS011;46439;51.164;13.572;2022-11-18T09:44:12;60.60;;;29.30;;
60610;SDS011;46439;51.164;13.572;2022-11-18T09:47:06;44.70;;;18.40;;
60610;SDS011;46439;51.164;13.572;2022-11-18T09:49:45;62.30;;;26.30;;
60610;SDS011;46439;51.164;13.572;2022-11-18T09:52:15;53.20;;;23.90;;
60610;SDS011;46439;51.164;13.572;2022-11-18T09:54:46;49.30;;;21.60;;
60610;SDS011;46439;51.164;13.572;2022-11-18T09:57:16;56.40;;;25.70;;
60610;SDS011;46439;51.164;13.572;2022-11-18T09:59:46;54.40;;;22.20;;
60610;SDS011;46439;51.164;13.572;2022-11-18T10:02:21;51.80;;;23.10;;
60610;SDS011;46439;51.164;13.572;2022-11-18T10:04:56;47.90;;;22.00;;
60610;SDS011;46439;51.164;13.572;2022-11-18T10:07:35;46.20;;;20.40;;
60610;SDS011;46439;51.164;13.572;2022-11-18T10:10:14;49.90;;;21.50;;
60610;SDS011;46439;51.164;13.572;2022-11-18T10:12:49;42.80;;;20.90;;
60610;SDS011;46439;51.164;13.572;2022-11-18T10:15:24;38.60;;;17.70;;
60610;SDS011;46439;51.164;13.572;2022-11-18T10:18:01;37.80;;;17.30;;
60610;SDS011;46439;51.164;13.572;2022-11-18T10:20:42;39.00;;;17.70;;
60610;SDS011;46439;51.164;13.572;2022-11-18T10:23:23;46.70;;;21.00;;
60610;SDS011;46439;51.164;13.572;2022-11-18T10:25:55;48.30;;;21.60;;
60610;SDS011;46439;51.164;13.572;2022-11-18T10:28:25;42.20;;;19.10;;
60610;SDS011;46439;51.164;13.572;2022-11-18T10:31:01;35.90;;;17.20;;
60610;SDS011;46439;51.164;13.572;2022-11-18T10:33:31;39.70;;;17.80;;
60610;SDS011;46439;51.164;13.572;2022-11-18T10:36:11;44.90;;;20.30;;
60610;SDS011;46439;51.164;13.572;2022-11-18T10:41:35;36.30;;;17.60;;
60610;SDS011;46439;51.164;13.572;2022-11-18T10:44:13;35.30;;;16.80;;
60610;SDS011;46439;51.164;13.572;2022-11-18T10:46:55;34.00;;;16.20;;
60610;SDS011;46439;51.164;13.572;2022-11-18T10:49:47;35.20;;;16.50;;
60610;SDS011;46439;51.164;13.572;2022-11-18T10:52:16;35.10;;;17.10;;
60610;SDS011;46439;51.164;13.572;2022-11-18T10:54:46;35.20;;;17.00;;
60610;SDS011;46439;51.164;13.572;2022-11-18T10:57:44;28.00;;;12.80;;
60610;SDS011;46439;51.164;13.572;2022-11-18T11:09:03;28.80;;;13.60;;
60610;SDS011;46439;51.164;13.572;2022-11-18T11:11:34;29.70;;;14.20;;
60610;SDS011;46439;51.164;13.572;2022-11-18T11:14:15;39.10;;;19.30;;
60610;SDS011;46439;51.164;13.572;2022-11-18T11:16:55;45.40;;;21.70;;
60610;SDS011;46439;51.164;13.572;2022-11-18T11:19:28;42.80;;;20.10;;
60610;SDS011;46439;51.164;13.572;2022-11-18T11:22:06;45.70;;;21.40;;
60610;SDS011;46439;51.164;13.572;2022-11-18T11:24:37;44.50;;;20.70;;
60610;SDS011;46439;51.164;13.572;2022-11-18T11:27:09;45.90;;;22.20;;
60610;SDS011;46439;51.164;13.572;2022-11-18T11:29:54;39.30;;;19.60;;
60610;SDS011;46439;51.164;13.572;2022-11-18T11:32:42;36.70;;;17.90;;
60610;SDS011;46439;51.164;13.572;2022-11-18T11:35:26;41.80;;;20.10;;
60610;SDS011;46439;51.164;13.572;2022-11-18T11:38:00;33.70;;;17.70;;
60610;SDS011;46439;51.164;13.572;2022-11-18T11:40:38;37.30;;;19.40;;
60610;SDS011;46439;51.164;13.572;2022-11-18T11:43:15;37.30;;;18.80;;
60610;SDS011;46439;51.164;13.572;2022-11-18T11:46:05;30.90;;;16.10;;
60610;SDS011;46439;51.164;13.572;2022-11-18T11:48:47;39.00;;;20.40;;
60610;SDS011;46439;51.164;13.572;2022-11-18T11:51:26;38.50;;;19.90;;
60610;SDS011;46439;51.164;13.572;2022-11-18T11:54:05;33.70;;;17.00;;
60610;SDS011;46439;51.164;13.572;2022-11-18T11:56:54;38.20;;;19.20;;
60610;SDS011;46439;51.164;13.572;2022-11-18T11:59:31;38.20;;;20.20;;
60610;SDS011;46439;51.164;13.572;2022-11-18T12:05:09;29.40;;;15.80;;
60610;SDS011;46439;51.164;13.572;2022-11-18T12:13:16;40.80;;;20.80;;
60610;SDS011;46439;51.164;13.572;2022-11-18T12:15:53;42.00;;;22.30;;
60610;SDS011;46439;51.164;13.572;2022-11-18T12:18:33;35.50;;;16.90;;
60610;SDS011;46439;51.164;13.572;2022-11-18T12:21:06;42.40;;;23.30;;
60610;SDS011;46439;51.164;13.572;2022-11-18T12:23:34;38.30;;;20.00;;
60610;SDS011;46439;51.164;13.572;2022-11-18T12:26:04;35.20;;;19.60;;
60610;SDS011;46439;51.164;13.572;2022-11-18T12:28:38;36.70;;;18.60;;
60610;SDS011;46439;51.164;13.572;2022-11-18T12:33:57;39.00;;;20.10;;
60610;SDS011;46439;51.164;13.572;2022-11-18T12:36:29;42.40;;;23.70;;
60610;SDS011;46439;51.164;13.572;2022-11-18T12:39:37;45.10;;;25.20;;
60610;SDS011;46439;51.164;13.572;2022-11-18T12:42:08;48.50;;;25.40;;
60610;SDS011;46439;51.164;13.572;2022-11-18T12:57:01;48.90;;;24.80;;
60610;SDS011;46439;51.164;13.572;2022-11-18T12:59:38;44.30;;;21.70;;
60610;SDS011;46439;51.164;13.572;2022-11-18T13:02:18;54.90;;;25.20;;
60610;SDS011;46439;51.164;13.572;2022-11-18T13:07:46;58.80;;;29.40;;
60610;SDS011;46439;51.164;13.572;2022-11-18T13:10:38;57.20;;;28.90;;
60610;SDS011;46439;51.164;13.572;2022-11-18T13:13:13;53.90;;;27.00;;
60610;SDS011;46439;51.164;13.572;2022-11-18T13:15:48;47.60;;;25.50;;
60610;SDS011;46439;51.164;13.572;2022-11-18T13:18:47;37.10;;;18.40;;
60610;SDS011;46439;51.164;13.572;2022-11-18T13:21:23;39.70;;;21.10;;
60610;SDS011;46439;51.164;13.572;2022-11-18T13:24:41;48.20;;;24.80;;
60610;SDS011;46439;51.164;13.572;2022-11-18T13:27:15;54.70;;;28.80;;
60610;SDS011;46439;51.164;13.572;2022-11-18T13:29:54;57.20;;;28.10;;
60610;SDS011;46439;51.164;13.572;2022-11-18T13:32:29;48.40;;;22.10;;
60610;SDS011;46439;51.164;13.572;2022-11-18T13:35:03;43.40;;;22.70;;
60610;SDS011;46439;51.164;13.572;2022-11-18T13:37:46;33.90;;;17.30;;
60610;SDS011;46439;51.164;13.572;2022-11-18T13:40:21;43.70;;;22.80;;
60610;SDS011;46439;51.164;13.572;2022-11-18T13:42:52;41.00;;;22.40;;
60610;SDS011;46439;51.164;13.572;2022-11-18T13:45:22;39.90;;;23.60;;
60610;SDS011;46439;51.164;13.572;2022-11-18T13:47:54;40.70;;;21.90;;
60610;SDS011;46439;51.164;13.572;2022-11-18T13:50:29;37.30;;;19.50;;
60610;SDS011;46439;51.164;13.572;2022-11-18T13:53:05;46.40;;;25.60;;
60610;SDS011;46439;51.164;13.572;2022-11-18T13:58:22;35.30;;;18.90;;
60610;SDS011;46439;51.164;13.572;2022-11-18T14:01:00;39.20;;;20.70;;
60610;SDS011;46439;51.164;13.572;2022-11-18T14:03:31;50.30;;;26.90;;
60610;SDS011;46439;51.164;13.572;2022-11-18T14:06:01;47.50;;;25.80;;
60610;SDS011;46439;51.164;13.572;2022-11-18T14:08:31;42.30;;;23.10;;
60610;SDS011;46439;51.164;13.572;2022-11-18T14:11:00;46.60;;;26.10;;
60610;SDS011;46439;51.164;13.572;2022-11-18T14:13:30;55.50;;;29.50;;
60610;SDS011;46439;51.164;13.572;2022-11-18T14:16:02;51.90;;;28.00;;
60610;SDS011;46439;51.164;13.572;2022-11-18T14:18:50;52.90;;;27.90;;
60610;SDS011;46439;51.164;13.572;2022-11-18T14:21:26;50.30;;;27.40;;
60610;SDS011;46439;51.164;13.572;2022-11-18T14:23:56;52.80;;;28.00;;
60610;SDS011;46439;51.164;13.572;2022-11-18T14:26:28;51.60;;;27.10;;
60610;SDS011;46439;51.164;13.572;2022-11-18T14:28:59;49.60;;;25.70;;
60610;SDS011;46439;51.164;13.572;2022-11-18T14:31:29;42.80;;;24.60;;
60610;SDS011;46439;51.164;13.572;2022-11-18T14:34:10;51.20;;;26.90;;
60610;SDS011;46439;51.164;13.572;2022-11-18T14:36:47;52.90;;;28.70;;
60610;SDS011;46439;51.164;13.572;2022-11-18T14:39:22;51.00;;;27.00;;
60610;SDS011;46439;51.164;13.572;2022-11-18T14:41:53;47.70;;;25.90;;
60610;SDS011;46439;51.164;13.572;2022-11-18T14:44:23;52.20;;;28.60;;
60610;SDS011;46439;51.164;13.572;2022-11-18T14:46:53;46.00;;;27.20;;
60610;SDS011;46439;51.164;13.572;2022-11-18T14:49:25;46.50;;;24.10;;
60610;SDS011;46439;51.164;13.572;2022-11-18T14:54:24;48.70;;;26.30;;
60610;SDS011;46439;51.164;13.572;2022-11-18T14:56:53;36.90;;;18.30;;
60610;SDS011;46439;51.164;13.572;2022-11-18T14:59:24;43.30;;;25.70;;
60610;SDS011;46439;51.164;13.572;2022-11-18T15:01:52;46.60;;;26.10;;
60610;SDS011;46439;51.164;13.572;2022-11-18T15:04:21;48.50;;;26.00;;
60610;SDS011;46439;51.164;13.572;2022-11-18T15:06:50;40.00;;;21.00;;
60610;SDS011;46439;51.164;13.572;2022-11-18T15:09:19;50.60;;;28.50;;
60610;SDS011;46439;51.164;13.572;2022-11-18T15:11:47;49.50;;;28.50;;
60610;SDS011;46439;51.164;13.572;2022-11-18T15:14:16;45.30;;;25.10;;
60610;SDS011;46439;51.164;13.572;2022-11-18T15:16:44;46.30;;;26.00;;
60610;SDS011;46439;51.164;13.572;2022-11-18T15:19:13;46.30;;;26.60;;
60610;SDS011;46439;51.164;13.572;2022-11-18T15:21:42;48.50;;;29.10;;
60610;SDS011;46439;51.164;13.572;2022-11-18T15:24:11;47.30;;;24.30;;
60610;SDS011;46439;51.164;13.572;2022-11-18T15:26:40;42.10;;;23.90;;
60610;SDS011;46439;51.164;13.572;2022-11-18T15:29:14;45.70;;;25.50;;